createdAt,value
2023-04-30T11:09:41.209Z,45.34
2023-04-30T11:12:14.507Z,42.96
2023-04-30T11:14:44.794Z,42.50
2023-04-30T11:17:14.763Z,41.22
2023-04-30T11:19:49.863Z,37.88
2023-04-30T11:22:19.665Z,39.36
2023-04-30T11:25:06.431Z,36.46
2023-04-30T11:27:35.697Z,37.92
2023-04-30T11:30:05.336Z,37.12
2023-04-30T11:32:35.252Z,36.69
2023-04-30T11:35:04.208Z,35.80
2023-04-30T11:37:33.850Z,35.25
2023-04-30T11:40:05.889Z,34.48
2023-04-30T11:42:35.543Z,35.24
2023-04-30T11:45:09.376Z,32.64
2023-04-30T11:47:41.544Z,32.18
2023-04-30T11:50:10.830Z,33.39
2023-04-30T11:52:39.027Z,32.99
2023-04-30T11:55:09.737Z,32.00
2023-04-30T11:57:41.872Z,29.93
2023-04-30T12:00:13.350Z,32.17
2023-04-30T12:02:42.015Z,32.59
2023-04-30T12:05:15.574Z,31.82
2023-04-30T12:07:47.568Z,30.66
2023-04-30T12:10:17.419Z,31.50
2023-04-30T12:12:45.868Z,31.46
2023-04-30T12:15:15.972Z,31.88
2023-04-30T12:17:44.548Z,31.47
2023-04-30T12:20:14.483Z,31.50
2023-04-30T12:22:43.124Z,31.57
2023-04-30T12:25:14.803Z,30.26
2023-04-30T12:27:47.923Z,29.33
2023-04-30T12:30:16.287Z,30.47
2023-04-30T12:32:46.063Z,30.42
2023-04-30T12:35:18.885Z,29.32
2023-04-30T12:37:48.468Z,30.54
2023-04-30T12:40:16.386Z,30.38
2023-04-30T12:42:46.986Z,30.35
2023-04-30T12:45:35.244Z,30.23
2023-04-30T12:48:03.260Z,30.19
2023-04-30T12:50:31.139Z,29.76
2023-04-30T12:53:04.470Z,28.38
2023-04-30T12:55:32.567Z,29.56
2023-04-30T12:58:12.563Z,28.03
2023-04-30T13:00:49.353Z,27.60
2023-04-30T13:03:21.185Z,28.47
2023-04-30T13:05:50.857Z,29.24
2023-04-30T13:08:19.591Z,28.76
2023-04-30T13:10:48.514Z,28.88
2023-04-30T13:13:20.216Z,28.24
2023-04-30T13:15:48.714Z,28.85
2023-04-30T13:18:16.831Z,29.01
2023-04-30T13:20:45.026Z,28.64
2023-04-30T13:23:13.074Z,28.82
2023-04-30T13:25:42.064Z,28.62
2023-04-30T13:28:10.065Z,28.71
2023-04-30T13:30:44.300Z,29.00
2023-04-30T13:33:12.751Z,29.22
2023-04-30T13:35:40.634Z,28.61
2023-04-30T13:38:08.545Z,28.95
2023-04-30T13:40:36.330Z,28.24
2023-04-30T13:43:04.321Z,28.17
2023-04-30T13:45:32.142Z,27.97
2023-04-30T13:48:01.473Z,27.97
2023-04-30T13:50:29.816Z,28.22
2023-04-30T13:52:59.340Z,27.97
2023-04-30T13:55:27.263Z,27.96
2023-04-30T13:57:55.385Z,27.60
2023-04-30T14:00:23.393Z,28.21
2023-04-30T14:02:51.368Z,27.89
2023-04-30T14:05:20.629Z,27.88
2023-04-30T14:07:48.535Z,27.71
2023-04-30T14:10:16.295Z,27.36
2023-04-30T14:12:44.101Z,28.15
2023-04-30T14:15:12.468Z,27.98
2023-04-30T14:17:40.299Z,27.79
2023-04-30T14:20:09.233Z,27.84
2023-04-30T14:22:39.277Z,27.45
2023-04-30T14:25:09.240Z,27.81
2023-04-30T14:27:37.447Z,27.44
2023-04-30T14:30:06.278Z,27.46
2023-04-30T14:32:34.239Z,27.31
2023-04-30T14:35:02.600Z,27.49
2023-04-30T14:37:30.493Z,27.65
2023-04-30T14:40:01.876Z,27.33
2023-04-30T14:42:29.692Z,27.73
2023-04-30T14:44:57.504Z,27.55
2023-04-30T14:47:27.371Z,27.69
2023-04-30T14:49:55.877Z,27.82
2023-04-30T14:52:23.865Z,27.39
2023-04-30T14:54:51.835Z,27.67
2023-04-30T14:57:21.176Z,27.47
2023-04-30T14:59:49.027Z,27.58
2023-04-30T15:02:16.952Z,27.62
2023-04-30T15:04:46.065Z,27.30
2023-04-30T15:07:14.080Z,27.31
2023-04-30T15:09:41.854Z,27.19
2023-04-30T15:12:09.646Z,27.34
2023-04-30T15:14:38.790Z,27.14
2023-04-30T15:17:06.804Z,27.67
2023-04-30T15:19:34.676Z,27.77
2023-04-30T15:22:02.648Z,27.33
2023-04-30T15:24:30.743Z,27.20
2023-04-30T15:26:58.676Z,27.69
2023-04-30T15:29:26.647Z,27.01
2023-04-30T15:31:56.502Z,27.40
2023-04-30T15:34:24.553Z,27.24
2023-04-30T15:36:52.648Z,27.19
2023-04-30T15:39:21.723Z,27.50
2023-04-30T15:41:49.604Z,27.18
2023-04-30T15:44:17.540Z,26.83
2023-04-30T15:46:45.458Z,27.33
2023-04-30T15:49:15.816Z,26.93
2023-04-30T15:51:49.150Z,27.15
2023-04-30T15:54:17.913Z,26.99
2023-04-30T15:56:45.808Z,27.35
2023-04-30T15:59:17.576Z,26.80
2023-04-30T16:01:47.247Z,27.18
2023-04-30T16:04:16.572Z,27.40
2023-04-30T16:06:44.483Z,27.20
2023-04-30T16:09:13.491Z,27.01
2023-04-30T16:11:41.448Z,27.49
2023-04-30T16:14:09.366Z,27.54
2023-04-30T16:16:37.293Z,27.43
2023-04-30T16:19:07.640Z,27.56
2023-04-30T16:21:38.540Z,27.23
2023-04-30T16:24:07.052Z,27.04
2023-04-30T16:26:36.129Z,27.10
2023-04-30T16:29:05.054Z,27.47
2023-04-30T16:31:33.094Z,27.41
2023-04-30T16:34:01.090Z,27.67
2023-04-30T16:36:29.151Z,27.19
2023-04-30T16:38:58.436Z,27.73
2023-04-30T16:41:26.499Z,27.64
2023-04-30T16:43:54.411Z,27.12
2023-04-30T16:46:22.317Z,27.31
2023-04-30T16:48:50.346Z,27.54
2023-04-30T16:51:18.106Z,27.31
2023-04-30T16:53:45.901Z,27.74
2023-04-30T16:56:15.080Z,27.45
2023-04-30T16:58:42.998Z,27.09
2023-04-30T17:01:11.610Z,27.54
2023-04-30T17:03:39.690Z,27.42
2023-04-30T17:06:08.213Z,27.48
2023-04-30T17:08:36.084Z,27.33
2023-04-30T17:11:03.934Z,27.62
2023-04-30T17:13:33.230Z,27.20
2023-04-30T17:16:02.196Z,27.53
2023-04-30T17:18:30.338Z,27.62
2023-04-30T17:20:58.201Z,27.37
2023-04-30T17:23:26.237Z,27.74
2023-04-30T17:25:54.078Z,27.51
2023-04-30T17:28:22.048Z,27.46
2023-04-30T17:30:51.610Z,27.95
2023-04-30T17:33:19.535Z,27.97
2023-04-30T17:35:47.364Z,27.94
2023-04-30T17:38:15.674Z,28.13
2023-04-30T17:40:43.467Z,27.58
2023-04-30T17:43:11.443Z,27.67
2023-04-30T17:45:39.222Z,27.85
2023-04-30T17:48:08.482Z,27.80
2023-04-30T17:50:37.075Z,28.01
2023-04-30T17:53:04.959Z,28.40
2023-04-30T17:55:32.771Z,28.24
2023-04-30T17:58:00.689Z,28.60
2023-04-30T18:00:28.466Z,28.62
2023-04-30T18:02:56.355Z,28.63
2023-04-30T18:05:25.584Z,28.26
2023-04-30T18:07:53.424Z,28.19
2023-04-30T18:10:21.287Z,28.62
2023-04-30T18:12:50.327Z,28.44
2023-04-30T18:15:18.180Z,28.92
2023-04-30T18:17:46.064Z,28.82
2023-04-30T18:20:13.968Z,29.00
2023-04-30T18:22:43.736Z,28.38
2023-04-30T18:25:13.014Z,28.73
2023-04-30T18:27:41.773Z,28.60
2023-04-30T18:30:11.489Z,28.57
2023-04-30T18:32:39.696Z,28.91
2023-04-30T18:35:08.264Z,28.72
2023-04-30T18:37:36.116Z,28.67
2023-04-30T18:40:05.935Z,29.11
2023-04-30T18:42:34.725Z,28.95
2023-04-30T18:45:02.558Z,28.75
2023-04-30T18:47:30.878Z,28.92
2023-04-30T18:49:58.816Z,29.44
2023-04-30T18:52:26.896Z,29.24
2023-04-30T18:54:55.355Z,29.27
2023-04-30T18:57:24.700Z,29.00
2023-04-30T18:59:52.854Z,29.05
2023-04-30T19:02:21.840Z,29.55
2023-04-30T19:04:50.435Z,29.47
2023-04-30T19:07:18.540Z,29.27
2023-04-30T19:09:48.404Z,29.16
2023-04-30T19:12:16.339Z,29.62
2023-04-30T19:14:45.800Z,29.33
2023-04-30T19:17:14.249Z,29.34
2023-04-30T19:19:43.752Z,29.55
2023-04-30T19:22:11.717Z,29.23
2023-04-30T19:24:39.505Z,29.69
2023-04-30T19:27:07.451Z,29.68
2023-04-30T19:29:35.357Z,29.59
2023-04-30T19:32:04.861Z,29.33
2023-04-30T19:34:32.930Z,29.42
2023-04-30T19:37:00.801Z,29.82
2023-04-30T19:39:31.392Z,29.34
2023-04-30T19:41:59.284Z,29.47
2023-04-30T19:44:29.179Z,29.43
2023-04-30T19:46:57.724Z,29.62
2023-04-30T19:49:27.173Z,29.99
2023-04-30T19:51:55.657Z,30.07
2023-04-30T19:54:23.605Z,30.23
2023-04-30T19:56:54.617Z,29.86
2023-04-30T19:59:22.832Z,30.08
2023-04-30T20:01:52.681Z,30.22
2023-04-30T20:04:23.438Z,30.05
2023-04-30T20:06:56.932Z,30.26
2023-04-30T20:09:26.046Z,30.23
2023-04-30T20:11:55.379Z,30.04
2023-04-30T20:14:23.899Z,29.70
2023-04-30T20:16:54.192Z,29.91
2023-04-30T20:19:22.672Z,30.12
2023-04-30T20:21:53.959Z,29.63
2023-04-30T20:24:22.676Z,29.92
2023-04-30T20:26:50.611Z,29.73
2023-04-30T20:29:20.556Z,30.10
2023-04-30T20:31:48.502Z,30.07
2023-04-30T20:34:16.384Z,30.23
2023-04-30T20:36:44.810Z,30.40
2023-04-30T20:39:14.593Z,29.90
2023-04-30T20:41:43.550Z,30.49
2023-04-30T20:44:11.450Z,29.93
2023-04-30T20:46:39.531Z,29.95
2023-04-30T20:49:07.453Z,30.49
2023-04-30T20:51:36.431Z,29.99
2023-04-30T20:54:04.431Z,30.60
2023-04-30T20:56:33.675Z,30.52
2023-04-30T20:59:01.753Z,30.25
2023-04-30T21:01:29.722Z,30.12
2023-04-30T21:03:57.564Z,30.63
2023-04-30T21:06:25.686Z,30.58
2023-04-30T21:08:53.491Z,30.59
2023-04-30T21:11:21.260Z,30.17
2023-04-30T21:13:51.370Z,30.55
2023-04-30T21:16:19.791Z,30.54
2023-04-30T21:18:48.756Z,30.17
2023-04-30T21:21:16.929Z,30.75
2023-04-30T21:23:46.676Z,30.38
2023-04-30T21:26:16.544Z,30.11
2023-04-30T21:28:44.348Z,30.17
2023-04-30T21:31:13.695Z,30.54
2023-04-30T21:33:41.846Z,30.06
2023-04-30T21:36:09.758Z,30.12
2023-04-30T21:38:37.863Z,30.14
2023-04-30T21:41:05.807Z,30.30
2023-04-30T21:43:33.596Z,30.34
2023-04-30T21:46:03.904Z,30.72
2023-04-30T21:48:34.190Z,30.63
2023-04-30T21:51:02.220Z,30.42
2023-04-30T21:53:30.031Z,30.51
2023-04-30T21:55:57.916Z,30.89
2023-04-30T21:58:26.093Z,30.58
2023-04-30T22:03:59.819Z,31.17
2023-04-30T22:06:37.324Z,30.97
2023-04-30T22:09:08.620Z,31.15
2023-04-30T22:11:40.525Z,30.90
2023-04-30T22:14:20.368Z,30.91
2023-04-30T22:16:52.835Z,31.22
2023-04-30T22:19:30.449Z,31.23
2023-04-30T22:25:01.264Z,31.42
2023-04-30T22:27:42.700Z,31.47
2023-04-30T22:30:15.931Z,31.22
2023-04-30T22:32:44.534Z,31.36
2023-04-30T22:35:17.255Z,31.29
2023-04-30T22:37:45.992Z,31.98
2023-04-30T22:40:14.291Z,31.45
2023-04-30T22:42:43.556Z,31.52
2023-04-30T22:45:12.061Z,31.28
2023-04-30T22:47:41.670Z,31.58
2023-04-30T22:50:11.261Z,31.70
2023-04-30T22:52:40.957Z,31.27
2023-04-30T22:55:09.668Z,31.42
2023-04-30T22:57:37.650Z,31.50
2023-04-30T23:00:06.224Z,31.84
2023-04-30T23:02:34.119Z,31.40
2023-04-30T23:05:03.135Z,31.46
2023-04-30T23:07:32.138Z,31.97
2023-04-30T23:10:01.811Z,31.68
2023-04-30T23:12:30.075Z,31.97
2023-04-30T23:14:57.983Z,31.85
2023-04-30T23:17:27.061Z,32.12
2023-04-30T23:19:55.123Z,32.12
2023-04-30T23:22:23.156Z,32.15
2023-04-30T23:24:52.634Z,31.96
2023-04-30T23:27:28.238Z,31.97
2023-04-30T23:29:57.686Z,32.33
2023-04-30T23:32:27.434Z,32.10
2023-04-30T23:34:58.354Z,32.47
2023-04-30T23:37:26.398Z,32.40
2023-04-30T23:39:54.945Z,32.39
2023-04-30T23:42:24.532Z,32.40
2023-04-30T23:44:52.418Z,32.21
2023-04-30T23:47:20.878Z,32.19
2023-04-30T23:49:48.822Z,32.55
2023-04-30T23:52:16.702Z,32.45
2023-04-30T23:54:44.619Z,32.75
2023-04-30T23:57:12.712Z,32.58
2023-04-30T23:59:42.631Z,32.79
